Time;durP1;ratioP1;P1;durP2;ratioP2;P2;SDS_P1;SDS_P2;PMS_P1;PMS_P2;Temp;Humidity;BMP_temperature;BMP_pressure;BME280_temperature;BME280_humidity;BME280_pressure;Samples;Min_cycle;Max_cycle;Signal;HPM_P1;HPM_P2
2024/03/03 00:01:48;;;;;;;4.43;1.20;;;;;;;3.01;100.00;98586.00;4882267;29;20051;-96
2024/03/03 00:04:45;;;;;;;;;;;;;;;2.97;100.00;98585.47;4900086;29;20042;-96
2024/03/03 00:07:31;;;;;;;;;;;;;;;;;;;;;
2024/03/03 00:13:41;;;;;;;4.68;1.00;;;;;;;3.01;100.00;98583.41;4861444;29;20048;-95
2024/03/03 00:17:13;;;;;;;;;;;;;;;;;;;;;
2024/03/03 00:21:06;;;;;;;1.88;0.90;;;;;;;3.01;100.00;98586.81;4892964;29;20059;-95
2024/03/03 00:23:54;;;;;;;3.58;1.15;;;;;;;2.95;100.00;98595.19;4854619;29;20028;-94
2024/03/03 00:32:03;;;;;;;;;;;;;;;;;;;;;
2024/03/03 00:43:41;;;;;;;1.55;0.63;;;;;;;2.88;100.00;98599.34;4894012;29;20491;-96
2024/03/03 00:46:46;;;;;;;5.45;1.10;;;;;;;2.88;100.00;98596.75;4896395;29;20100;-95
2024/03/03 00:50:05;;;;;;;2.65;0.50;;;;;;;2.92;100.00;98603.31;4878935;29;20049;-96
2024/03/03 00:53:06;;;;;;;1.60;0.60;;;;;;;2.95;100.00;98603.03;4880787;29;20472;-95
2024/03/03 00:55:50;;;;;;;1.58;0.75;;;;;;;2.97;100.00;98588.06;4866115;29;20036;-96
2024/03/03 01:06:41;;;;;;;1.02;0.80;;;;;;;3.01;100.00;98589.41;4869974;29;20169;-95
2024/03/03 01:09:40;;;;;;;2.17;1.45;;;;;;;3.05;100.00;98589.97;4863834;29;20040;-96
2024/03/03 01:12:15;;;;;;;2.20;0.90;;;;;;;3.00;100.00;98586.94;4866269;29;20040;-85
2024/03/03 01:14:50;;;;;;;2.20;0.70;;;;;;;2.98;100.00;98576.66;4877520;29;20104;-96
2024/03/03 01:57:42;;;;;;;1.40;0.75;;;;;;;2.92;100.00;98590.25;5986210;23;20058;-96
2024/03/03 02:00:11;;;;;;;4.45;0.90;;;;;;;2.94;100.00;98596.19;4907211;29;20043;-96
2024/03/03 02:02:45;;;;;;;6.07;1.08;;;;;;;2.96;100.00;98594.25;4882215;29;20391;-96
2024/03/03 02:06:02;;;;;;;;;;;;;;;;;;;;;
2024/03/03 02:20:36;;;;;;;4.15;1.73;;;;;;;3.07;100.00;98593.25;4935885;29;20476;-94
2024/03/03 02:23:34;;;;;;;1.63;0.70;;;;;;;3.03;100.00;98584.06;4921811;29;20056;-94
2024/03/03 02:26:30;;;;;;;1.52;0.70;;;;;;;3.00;100.00;98582.56;4917752;29;20039;-93
2024/03/03 02:29:10;;;;;;;3.00;1.05;;;;;;;3.04;100.00;98581.31;4884235;29;20044;-94
2024/03/03 02:31:41;;;;;;;3.28;1.00;;;;;;;3.02;100.00;98583.25;4895977;29;20240;-94
2024/03/03 02:34:13;;;;;;;2.80;0.90;;;;;;;3.02;100.00;98587.63;4885578;29;20134;-95
2024/03/03 02:36:50;;;;;;;4.45;1.58;;;;;;;3.02;100.00;98587.63;4906189;29;20051;-95
2024/03/03 02:39:20;;;;;;;1.48;0.70;;;;;;;2.97;100.00;98588.06;4907522;29;20040;-95
2024/03/03 02:41:56;;;;;;;1.30;0.80;;;;;;;3.01;100.00;98586.81;4902675;29;20043;-95
2024/03/03 02:44:28;;;;;;;1.38;0.82;;;;;;;2.94;100.00;98578.75;4891821;29;20043;-94
2024/03/03 02:46:57;;;;;;;3.28;0.88;;;;;;;2.98;100.00;98584.47;4895202;29;20100;-94
2024/03/03 02:49:43;;;;;;;4.32;0.90;;;;;;;3.03;100.00;98574.44;4911861;29;20039;-94
2024/03/03 02:52:53;;;;;;;2.78;0.60;;;;;;;3.04;100.00;98580.50;4900750;29;20047;-94
2024/03/03 02:59:33;;;;;;;2.05;0.57;;;;;;;3.00;100.00;98579.94;4924480;29;20051;-95
2024/03/03 03:02:16;;;;;;;2.90;0.68;;;;;;;3.05;100.00;98582.97;4900175;29;20047;-95
2024/03/03 03:08:32;;;;;;;4.47;1.33;;;;;;;3.09;100.00;98583.50;4917574;29;20042;-84
2024/03/03 03:10:59;;;;;;;3.28;0.50;;;;;;;3.07;100.00;98583.63;4886580;29;20036;-95
2024/03/03 03:14:02;;;;;;;0.80;0.50;;;;;;;3.12;100.00;98572.78;4877591;29;20038;-94
2024/03/03 03:16:31;;;;;;;3.75;0.63;;;;;;;3.09;100.00;98570.47;4902277;29;20046;-95
2024/03/03 03:19:08;;;;;;;5.78;0.90;;;;;;;3.17;100.00;98575.78;4903923;29;20067;-95
2024/03/03 03:21:38;;;;;;;3.40;0.60;;;;;;;3.15;100.00;98575.13;4868847;29;20047;-95
2024/03/03 03:24:15;;;;;;;2.75;0.77;;;;;;;3.15;100.00;98559.44;4882330;29;20033;-94
2024/03/03 03:26:50;;;;;;;1.60;0.60;;;;;;;3.16;100.00;98558.47;4886300;29;20043;-94
2024/03/03 03:29:26;;;;;;;1.83;0.97;;;;;;;3.21;100.00;98560.66;4885224;29;20127;-93
2024/03/03 03:32:36;;;;;;;0.80;0.50;;;;;;;3.21;100.00;98571.09;4859722;29;20064;-94
2024/03/03 03:38:49;;;;;;;1.83;0.70;;;;;;;3.22;100.00;98568.34;4881596;29;20471;-95
2024/03/03 03:41:52;;;;;;;3.53;0.52;;;;;;;3.23;100.00;98569.16;4888536;29;20043;-95
2024/03/03 03:48:44;;;;;;;3.05;0.45;;;;;;;3.28;100.00;98571.34;4910021;29;20107;-95
2024/03/03 03:55:43;;;;;;;1.95;0.55;;;;;;;3.29;100.00;98567.75;4906545;29;20047;-94
2024/03/03 04:00:01;;;;;;;2.55;1.08;;;;;;;3.31;100.00;98566.63;4913352;29;20055;-94
2024/03/03 04:02:33;;;;;;;2.05;0.52;;;;;;;3.27;100.00;98570.53;4896554;29;20048;-95
2024/03/03 04:08:34;;;;;;;1.88;0.30;;;;;;;3.34;100.00;98573.38;4894196;29;20036;-94
2024/03/03 04:15:28;;;;;;;0.45;0.40;;;;;;;3.34;100.00;98563.75;4952556;28;20038;-94
2024/03/03 04:17:57;;;;;;;3.05;0.70;;;;;;;3.35;100.00;98572.41;4931403;28;20125;-90
2024/03/03 04:20:23;;;;;;;1.48;0.60;;;;;;;3.34;100.00;98570.78;4937838;29;20198;-89
2024/03/03 04:22:51;;;;;;;1.52;0.50;;;;;;;3.35;100.00;98567.19;4937395;28;20612;-90
2024/03/03 04:25:17;;;;;;;2.17;0.55;;;;;;;3.38;100.00;98579.16;4921349;29;20039;-89
2024/03/03 04:27:43;;;;;;;3.13;0.52;;;;;;;3.38;100.00;98581.75;4908899;29;20031;-90
2024/03/03 04:30:09;;;;;;;1.15;0.30;;;;;;;3.45;100.00;98588.88;4916478;29;20035;-89
2024/03/03 04:32:36;;;;;;;0.25;0.10;;;;;;;3.44;100.00;98583.78;4937493;29;20035;-90
2024/03/03 04:35:12;;;;;;;0.20;0.20;;;;;;;3.47;100.00;98586.91;4938353;29;20046;-90
2024/03/03 04:37:38;;;;;;;2.45;0.35;;;;;;;3.41;100.00;98581.47;4931845;29;20050;-90
2024/03/03 04:40:06;;;;;;;1.90;0.30;;;;;;;3.47;100.00;98588.72;4910121;29;20051;-90
2024/03/03 04:42:34;;;;;;;0.28;0.20;;;;;;;3.49;100.00;98591.19;4908838;29;20039;-89
2024/03/03 04:45:06;;;;;;;2.03;0.40;;;;;;;3.39;100.00;98588.63;4949683;28;20070;-89
2024/03/03 04:47:32;;;;;;;2.35;0.20;;;;;;;3.41;100.00;98594.53;4905344;28;20031;-90
2024/03/03 04:49:59;;;;;;;3.78;0.38;;;;;;;3.43;100.00;98600.41;4904335;29;20038;-89
2024/03/03 04:52:25;;;;;;;1.98;0.50;;;;;;;3.46;100.00;98608.78;4906270;28;20035;-90
2024/03/03 04:54:51;;;;;;;0.82;0.28;;;;;;;3.42;100.00;98602.22;4941629;29;20114;-89
2024/03/03 04:57:17;;;;;;;2.42;0.30;;;;;;;3.47;100.00;98601.78;4910367;28;20534;-89
2024/03/03 04:59:45;;;;;;;0.80;0.30;;;;;;;3.46;100.00;98606.19;4919712;29;20032;-88
2024/03/03 05:02:12;;;;;;;1.52;0.40;;;;;;;3.50;100.00;98621.56;4904233;29;20043;-89
2024/03/03 05:04:43;;;;;;;1.00;0.20;;;;;;;3.43;100.00;98608.25;4904351;29;20034;-90
2024/03/03 05:07:09;;;;;;;1.65;0.20;;;;;;;3.49;100.00;98618.13;4907791;29;20047;-90
2024/03/03 05:09:45;;;;;;;2.38;0.30;;;;;;;3.55;100.00;98619.34;4920297;29;20118;-90
2024/03/03 05:12:13;;;;;;;4.78;0.38;;;;;;;3.56;100.00;98626.22;4955804;28;20074;-89
2024/03/03 05:14:52;;;;;;;3.60;0.30;;;;;;;3.57;100.00;98623.47;4900202;29;20046;-90
2024/03/03 05:17:31;;;;;;;1.95;0.30;;;;;;;3.60;100.00;98614.50;4914083;28;20098;-90
2024/03/03 05:20:07;;;;;;;3.42;0.38;;;;;;;3.58;100.00;98622.47;4937395;29;20067;-90
2024/03/03 05:22:50;;;;;;;4.57;0.35;;;;;;;3.66;100.00;98628.78;4910717;29;20110;-90
2024/03/03 05:25:26;;;;;;;4.10;0.38;;;;;;;3.66;100.00;98637.47;4911785;28;20051;-90
2024/03/03 05:28:02;;;;;;;5.10;0.60;;;;;;;3.64;100.00;98639.38;4907641;29;20058;-90
2024/03/03 05:30:51;;;;;;;3.80;0.50;;;;;;;3.71;100.00;98643.06;4921251;29;20043;-90
2024/03/03 05:33:36;;;;;;;1.40;0.30;;;;;;;3.67;100.00;98631.25;4922081;29;20042;-89
2024/03/03 05:36:13;;;;;;;1.05;0.30;;;;;;;3.67;100.00;98636.47;4921809;29;20135;-90
2024/03/03 05:38:57;;;;;;;4.95;0.50;;;;;;;3.76;100.00;98644.44;4907639;29;20157;-90
2024/03/03 05:41:31;;;;;;;8.75;1.05;;;;;;;3.72;100.00;98654.34;4921377;28;20048;-90
2024/03/03 05:44:14;;;;;;;;;;;;;;;;;;;;;
2024/03/03 05:46:52;;;;;;;1.05;0.30;;;;;;;3.74;100.00;98662.88;4934738;29;20067;-90
2024/03/03 05:49:30;;;;;;;1.85;0.30;;;;;;;3.66;100.00;98660.16;4906212;28;20039;-90
2024/03/03 05:52:11;;;;;;;0.80;0.30;;;;;;;3.73;100.00;98666.44;4920638;29;20123;-90
2024/03/03 05:54:45;;;;;;;3.75;0.43;;;;;;;3.67;100.00;98659.16;4924049;29;20121;-90
2024/03/03 05:57:19;;;;;;;4.28;0.50;;;;;;;3.70;100.00;98670.16;4923024;29;20129;-89
2024/03/03 05:59:50;;;;;;;4.90;0.40;;;;;;;3.65;100.00;98661.09;4938661;28;20036;-89
2024/03/03 06:02:23;;;;;;;2.80;0.30;;;;;;;3.64;100.00;98664.69;4936800;28;20069;-89
2024/03/03 06:05:03;;;;;;;1.90;0.60;;;;;;;3.72;100.00;98681.31;4922041;29;20036;-90
2024/03/03 06:07:33;;;;;;;1.70;0.80;;;;;;;3.69;100.00;98681.59;4897509;28;20049;-90
2024/03/03 06:10:04;;;;;;;4.13;1.33;;;;;;;3.69;100.00;98689.44;4901859;29;20107;-89
2024/03/03 06:12:34;;;;;;;3.85;1.35;;;;;;;3.76;100.00;98691.47;4910975;29;20055;-89
2024/03/03 06:15:10;;;;;;;3.20;1.33;;;;;;;3.71;100.00;98684.88;4900617;29;20502;-90
2024/03/03 06:17:40;;;;;;;4.43;0.75;;;;;;;3.78;100.00;98699.97;4891209;29;20051;-90
2024/03/03 06:20:14;;;;;;;3.13;0.60;;;;;;;3.75;100.00;98695.88;4891076;29;20111;-89
2024/03/03 06:22:41;;;;;;;4.47;0.65;;;;;;;3.74;100.00;98696.00;4893924;29;20042;-90
2024/03/03 06:25:15;;;;;;;3.58;0.40;;;;;;;3.80;100.00;98701.50;4899377;29;20481;-89
2024/03/03 06:27:48;;;;;;;1.75;0.40;;;;;;;3.82;100.00;98715.22;4905192;29;20046;-90
2024/03/03 06:30:21;;;;;;;1.02;0.22;;;;;;;3.84;100.00;98721.13;4924366;29;20035;-90
2024/03/03 06:32:52;;;;;;;;;;;;;;;3.83;100.00;98721.28;4893954;29;20044;-90
2024/03/03 06:35:36;;;;;;;3.10;0.50;;;;;;;3.87;100.00;98733.09;4903863;29;20311;-89
2024/03/03 06:38:19;;;;;;;0.10;0.10;;;;;;;3.93;100.00;98734.31;4883724;29;20044;-89
2024/03/03 06:40:58;;;;;;;3.15;0.22;;;;;;;3.90;100.00;98743.25;4917927;29;20039;-89
2024/03/03 06:43:30;;;;;;;3.22;0.30;;;;;;;3.89;100.00;98748.63;4903042;29;20191;-90
2024/03/03 06:46:23;;;;;;;1.20;0.30;;;;;;;3.89;100.00;98748.63;4900932;29;20044;-89
2024/03/03 06:49:14;;;;;;;2.17;0.40;;;;;;;3.91;100.00;98751.91;4888755;29;20075;-89
2024/03/03 06:51:48;;;;;;;2.95;0.30;;;;;;;3.90;100.00;98751.09;4932529;29;20031;-90
2024/03/03 06:54:40;;;;;;;0.63;0.20;;;;;;;3.92;100.00;98743.09;4903090;29;20047;-89
2024/03/03 06:57:14;;;;;;;2.72;0.40;;;;;;;3.89;100.00;98749.44;4889299;29;20043;-89
2024/03/03 06:59:58;;;;;;;2.15;0.50;;;;;;;3.94;100.00;98762.09;4882436;29;20389;-90
2024/03/03 07:03:02;;;;;;;1.90;0.22;;;;;;;3.87;100.00;98761.03;4908117;29;20062;-90
2024/03/03 07:05:38;;;;;;;2.10;0.38;;;;;;;3.80;100.00;98769.44;4908970;29;20044;-89
2024/03/03 07:08:14;;;;;;;;;;;;;;;3.68;100.00;98765.34;4876158;29;20032;-90
2024/03/03 07:10:48;;;;;;;2.95;0.30;;;;;;;3.58;100.00;98775.81;4885275;29;20021;-90
2024/03/03 07:13:39;;;;;;;1.42;0.22;;;;;;;3.55;100.00;98771.69;4886611;29;20135;-89
2024/03/03 07:16:12;;;;;;;1.15;0.28;;;;;;;3.47;100.00;98763.75;4884649;29;20044;-90
2024/03/03 07:18:42;;;;;;;1.20;0.35;;;;;;;3.42;100.00;98776.38;4892123;29;20036;-87
2024/03/03 07:21:13;;;;;;;1.70;0.43;;;;;;;3.42;100.00;98779.00;4899504;29;20040;-90
2024/03/03 07:23:53;;;;;;;4.55;0.50;;;;;;;3.34;100.00;98780.50;4885308;29;20048;-90
2024/03/03 07:27:05;;;;;;;2.92;0.50;;;;;;;3.34;100.00;98792.75;4870509;29;20210;-90
2024/03/03 07:29:48;;;;;;;2.97;0.40;;;;;;;3.28;100.00;98786.28;4890963;29;20445;-90
2024/03/03 07:32:38;;;;;;;0.43;0.20;;;;;;;3.26;100.00;98790.84;4884978;29;20163;-90
2024/03/03 07:35:22;;;;;;;4.75;0.40;;;;;;;3.21;100.00;98790.41;4891670;29;20039;-90
2024/03/03 07:37:58;;;;;;;1.10;0.30;;;;;;;3.19;100.00;98787.13;4862313;29;20048;-90
2024/03/03 07:40:44;;;;;;;2.47;0.77;;;;;;;3.27;100.00;98802.91;4881906;29;20402;-90
2024/03/03 07:43:19;;;;;;;4.00;0.57;;;;;;;3.25;100.00;98793.59;4880994;29;20066;-90
2024/03/03 07:46:11;;;;;;;3.50;0.88;;;;;;;3.18;100.00;98788.09;4887137;29;20038;-90
2024/03/03 07:48:45;;;;;;;2.58;0.47;;;;;;;3.18;100.00;98793.31;4868079;29;20479;-90
2024/03/03 07:51:21;;;;;;;2.75;0.22;;;;;;;3.28;100.00;98804.56;4868265;29;20039;-90
2024/03/03 07:53:59;;;;;;;0.38;0.10;;;;;;;3.35;100.00;98797.00;4872890;29;20052;-90
2024/03/03 07:56:51;;;;;;;3.85;0.40;;;;;;;3.35;100.00;98797.00;4880632;29;20574;-90
2024/03/03 07:59:53;;;;;;;2.08;0.40;;;;;;;3.37;100.00;98805.53;4893021;29;20044;-90
2024/03/03 08:03:17;;;;;;;4.70;3.95;;;;;;;3.53;100.00;98815.44;4891605;29;20048;-90
2024/03/03 08:05:56;;;;;;;1.85;0.88;;;;;;;3.55;100.00;98812.69;4915427;29;20047;-89
2024/03/03 08:08:36;;;;;;;1.02;0.50;;;;;;;3.42;100.00;98831.25;4881745;29;20049;-90
2024/03/03 08:11:17;;;;;;;5.80;4.10;;;;;;;3.44;100.00;98830.13;4900196;29;20743;-90
2024/03/03 08:13:50;;;;;;;2.50;1.65;;;;;;;3.57;100.00;98842.91;4951840;28;20070;-90
2024/03/03 08:16:29;;;;;;;2.55;0.70;;;;;;;3.63;100.00;98840.72;4923986;29;20122;-90
2024/03/03 08:19:17;;;;;;;5.32;0.95;;;;;;;3.66;100.00;98849.09;4917865;29;20127;-90
2024/03/03 08:22:03;;;;;;;17.95;14.00;;;;;;;3.72;100.00;98850.31;4906069;28;20128;-89
2024/03/03 08:24:45;;;;;;;20.98;15.48;;;;;;;3.86;100.00;98851.69;4947051;28;20051;-89
2024/03/03 08:27:24;;;;;;;12.85;9.98;;;;;;;3.98;100.00;98862.81;4901978;29;20031;-89
2024/03/03 08:30:39;;;;;;;6.00;3.40;;;;;;;4.04;100.00;98864.03;4906587;29;21431;-90
2024/03/03 08:33:17;;;;;;;5.30;2.35;;;;;;;3.99;100.00;98867.06;4906307;28;20042;-89
2024/03/03 08:36:43;;;;;;;2.88;1.45;;;;;;;4.05;100.00;98876.13;4934906;28;20039;-90
2024/03/03 08:39:38;;;;;;;2.70;1.95;;;;;;;4.08;100.00;98887.13;4922100;28;20055;-89
2024/03/03 08:42:25;;;;;;;3.63;2.90;;;;;;;4.06;100.00;98883.84;4924229;29;20039;-89
2024/03/03 08:45:18;;;;;;;8.95;6.78;;;;;;;4.21;100.00;98897.31;4916342;29;20129;-90
2024/03/03 08:48:15;;;;;;;5.78;2.53;;;;;;;4.33;100.00;98907.59;4915247;28;20047;-90
2024/03/03 08:50:51;;;;;;;4.32;1.20;;;;;;;4.30;100.00;98898.22;4922419;29;20189;-90
2024/03/03 08:53:57;;;;;;;2.25;0.90;;;;;;;4.47;100.00;98909.72;4938017;28;20086;-90
2024/03/03 08:57:09;;;;;;;7.93;0.60;;;;;;;4.55;100.00;98909.03;4946817;29;20070;-90
2024/03/03 09:00:10;;;;;;;2.40;0.52;;;;;;;4.65;100.00;98911.59;4914891;28;20516;-90
2024/03/03 09:06:00;;;;;;;7.90;1.40;;;;;;;4.81;100.00;98931.94;4910644;29;20172;-85
2024/03/03 09:08:38;;;;;;;5.38;0.60;;;;;;;4.84;100.00;98933.47;4913082;29;20032;-84
2024/03/03 09:11:19;;;;;;;11.20;0.60;;;;;;;4.89;100.00;98930.41;4917905;28;20051;-84
2024/03/03 09:14:24;;;;;;;3.83;0.70;;;;;;;4.97;100.00;98939.16;4884514;29;20035;-84
2024/03/03 09:16:58;;;;;;;1.63;0.73;;;;;;;5.04;100.00;98942.03;4885723;29;20040;-85
2024/03/03 09:19:27;;;;;;;3.40;0.75;;;;;;;5.21;100.00;98939.59;4892674;29;20048;-87
2024/03/03 09:22:15;;;;;;;2.88;0.50;;;;;;;5.30;100.00;98933.47;4883609;29;20063;-84
2024/03/03 09:24:54;;;;;;;;;;;;;;;;;;;;;
2024/03/03 09:27:36;;;;;;;1.60;0.52;;;;;;;5.33;100.00;98934.97;4888851;29;20060;-84
2024/03/03 09:30:10;;;;;;;1.55;0.50;;;;;;;5.34;100.00;98944.47;4907937;29;20602;-85
2024/03/03 09:33:11;;;;;;;2.53;0.45;;;;;;;5.49;100.00;98959.69;4932270;29;20027;-84
2024/03/03 09:35:53;;;;;;;0.73;0.50;;;;;;;5.57;100.00;98957.16;4889956;29;20055;-84
2024/03/03 09:38:36;;;;;;;2.80;0.50;;;;;;;5.56;100.00;98958.13;4879489;29;20048;-84
2024/03/03 09:41:19;;;;;;;3.83;1.05;;;;;;;5.58;100.00;98958.81;4882144;29;20052;-83
2024/03/03 09:44:06;;;;;;;4.43;0.90;;;;;;;5.69;100.00;98963.84;4898533;29;20067;-84
2024/03/03 09:46:34;;;;;;;2.53;0.47;;;;;;;5.74;100.00;98963.38;4916394;29;20439;-83
2024/03/03 09:49:04;;;;;;;2.33;0.30;;;;;;;5.77;100.00;98963.09;4887785;29;20054;-84
2024/03/03 09:51:33;;;;;;;4.53;0.40;;;;;;;5.79;100.00;98960.31;4885869;29;20047;-83
2024/03/03 09:54:07;;;;;;;3.00;0.55;;;;;;;5.81;100.00;98969.66;4927259;29;20077;-84
2024/03/03 09:56:40;;;;;;;12.05;0.90;;;;;;;5.77;100.00;98957.84;4915544;29;20039;-83
2024/03/03 09:59:06;;;;;;;2.55;0.40;;;;;;;5.78;100.00;98964.72;4886029;29;20036;-83
2024/03/03 10:01:35;;;;;;;1.65;0.60;;;;;;;5.85;100.00;98967.56;4883775;29;20039;-83
2024/03/03 10:04:06;;;;;;;1.83;0.40;;;;;;;5.94;100.00;98968.50;4885729;29;20046;-83
2024/03/03 10:06:45;;;;;;;1.45;0.40;;;;;;;5.87;100.00;98962.19;4904662;29;20035;-83
2024/03/03 10:09:15;;;;;;;5.40;0.50;;;;;;;5.92;100.00;98965.19;4889254;29;20051;-83
2024/03/03 10:12:37;;;;;;;2.53;1.02;;;;;;;5.96;100.00;98969.13;4914782;29;20036;-83
2024/03/03 10:14:46;;;;;;;1.35;0.40;;;;;;;6.14;100.00;98977.03;4881049;29;20048;-84
2024/03/03 10:17:12;;;;;;;4.25;0.60;;;;;;;6.22;100.00;98980.69;4899618;29;20048;-86
2024/03/03 10:19:38;;;;;;;4.35;0.40;;;;;;;6.24;100.00;98984.00;4897343;29;20040;-84
2024/03/03 10:22:07;;;;;;;0.60;0.38;;;;;;;6.30;100.00;98986.84;4885462;29;20509;-84
2024/03/03 10:24:33;;;;;;;1.35;0.50;;;;;;;6.37;100.00;98986.22;4884926;29;20395;-84
2024/03/03 10:27:02;;;;;;;1.40;0.40;;;;;;;6.42;100.00;98986.56;4863119;29;20040;-83
2024/03/03 10:29:29;;;;;;;1.85;0.32;;;;;;;6.48;100.00;98985.97;4894995;29;20180;-84
2024/03/03 10:31:56;;;;;;;0.85;0.30;;;;;;;6.50;100.00;98988.44;4897208;29;20440;-83
2024/03/03 10:34:26;;;;;;;2.75;0.50;;;;;;;6.58;100.00;98991.94;4902316;29;20097;-84
2024/03/03 10:37:04;;;;;;;3.20;0.52;;;;;;;6.63;100.00;98994.09;4883466;29;20041;-85
2024/03/03 10:39:37;;;;;;;1.58;0.38;;;;;;;6.59;100.00;98992.78;4876889;29;20051;-83
2024/03/03 10:42:10;;;;;;;2.50;0.63;;;;;;;6.62;100.00;98996.88;4895083;29;21251;-84
2024/03/03 10:44:37;;;;;;;5.65;0.80;;;;;;;6.60;100.00;98993.56;4895968;29;20040;-84
2024/03/03 10:47:24;;;;;;;2.15;0.30;;;;;;;6.63;100.00;98988.84;4889877;29;20168;-84
2024/03/03 10:49:49;;;;;;;1.85;0.47;;;;;;;6.59;100.00;98990.16;4879127;29;20046;-83
2024/03/03 10:52:15;;;;;;;2.53;0.60;;;;;;;6.65;100.00;98993.94;4907390;29;20069;-84
2024/03/03 10:54:43;;;;;;;5.57;2.08;;;;;;;6.68;100.00;98989.22;4900981;29;20040;-83
2024/03/03 10:57:10;;;;;;;2.67;0.88;;;;;;;6.63;100.00;99001.97;4872491;29;20040;-85
2024/03/03 10:59:41;;;;;;;3.33;0.75;;;;;;;6.61;100.00;98998.66;4886474;29;20072;-84
2024/03/03 11:02:11;;;;;;;2.17;0.40;;;;;;;6.53;100.00;98998.63;4888607;29;20028;-84
2024/03/03 11:04:39;;;;;;;4.85;0.68;;;;;;;6.48;100.00;98999.09;4874620;29;20075;-84
2024/03/03 11:07:05;;;;;;;5.82;0.47;;;;;;;6.46;100.00;99006.31;4869454;29;20388;-84
2024/03/03 11:09:31;;;;;;;7.35;0.63;;;;;;;6.49;100.00;99005.16;4889846;29;20126;-84
2024/03/03 11:12:05;;;;;;;3.78;0.77;;;;;;;6.57;100.00;99005.22;4904091;29;20406;-84
2024/03/03 11:14:53;;;;;;;2.90;0.60;;;;;;;6.55;100.00;99012.41;4900407;29;20035;-84
2024/03/03 11:17:20;;;;;;;1.75;0.60;;;;;;;6.53;100.00;99022.25;4909997;29;20386;-84
2024/03/03 11:19:48;;;;;;;6.65;0.95;;;;;;;6.58;100.00;99015.56;4873236;29;20131;-84
2024/03/03 11:22:21;;;;;;;3.42;0.45;;;;;;;6.63;100.00;99017.72;4926193;29;20651;-83
2024/03/03 11:24:58;;;;;;;4.43;0.63;;;;;;;6.68;100.00;99023.34;4905107;29;20031;-83
2024/03/03 11:27:26;;;;;;;3.13;0.57;;;;;;;6.72;100.00;99021.22;4883880;29;20178;-83
2024/03/03 11:29:55;;;;;;;1.20;0.38;;;;;;;6.78;100.00;99028.50;4911144;29;20050;-84
2024/03/03 11:32:29;;;;;;;7.15;0.70;;;;;;;6.77;100.00;99029.47;4885243;29;20385;-84
2024/03/03 11:34:56;;;;;;;4.97;0.70;;;;;;;6.79;100.00;99035.41;4905972;29;20402;-84
2024/03/03 11:37:24;;;;;;;3.85;0.40;;;;;;;6.85;100.00;99043.66;4897876;29;20055;-83
2024/03/03 11:39:49;;;;;;;3.38;0.68;;;;;;;6.80;100.00;99046.72;4914609;29;20039;-83
2024/03/03 11:42:31;;;;;;;2.97;1.10;;;;;;;6.85;100.00;99054.94;4884054;29;20498;-84
2024/03/03 11:45:01;;;;;;;2.38;0.60;;;;;;;6.80;100.00;99065.91;4866584;29;20036;-83
2024/03/03 11:47:32;;;;;;;2.53;0.80;;;;;;;6.86;100.00;99055.78;4892151;29;20036;-83
2024/03/03 11:49:58;;;;;;;4.07;0.80;;;;;;;6.88;100.00;99059.09;4904061;29;20040;-83
2024/03/03 11:52:42;;;;;;;4.82;0.85;;;;;;;6.95;100.00;99060.09;4930034;29;20043;-83
2024/03/03 11:55:15;;;;;;;2.67;0.65;;;;;;;6.91;100.00;99061.41;4916300;29;20474;-84
2024/03/03 11:57:44;;;;;;;4.70;2.13;;;;;;;6.90;100.00;99062.38;4913732;29;20480;-83
2024/03/03 12:00:16;;;;;;;4.82;0.88;;;;;;;6.92;100.00;99068.31;4874698;29;20131;-82
2024/03/03 12:02:44;;;;;;;3.42;0.75;;;;;;;6.92;100.00;99063.88;4904701;29;20067;-83
2024/03/03 12:05:12;;;;;;;3.88;0.80;;;;;;;6.98;100.00;99059.78;4884856;29;20493;-83
2024/03/03 12:07:46;;;;;;;3.45;1.10;;;;;;;7.06;100.00;99049.34;4894173;29;20032;-83
2024/03/03 12:10:14;;;;;;;4.45;1.83;;;;;;;7.14;100.00;99056.44;4897108;29;20036;-83
2024/03/03 12:12:44;;;;;;;2.08;0.68;;;;;;;7.21;100.00;99056.66;4883797;29;20111;-83
2024/03/03 12:15:10;;;;;;;6.35;3.45;;;;;;;7.19;100.00;99055.97;4915323;29;20058;-83
2024/03/03 12:17:36;;;;;;;7.10;2.45;;;;;;;7.26;100.00;99051.72;4923632;29;20584;-83
2024/03/03 12:20:06;;;;;;;4.00;1.30;;;;;;;7.40;100.00;99057.38;4909441;29;20035;-82
2024/03/03 12:22:33;;;;;;;5.30;1.08;;;;;;;7.45;100.00;99061.16;4879451;29;20067;-83
2024/03/03 12:25:00;;;;;;;5.30;1.00;;;;;;;7.51;100.00;99064.16;4911970;29;20512;-83
2024/03/03 12:27:26;;;;;;;3.83;2.80;;;;;;;7.53;100.00;99054.31;4898145;29;20039;-83
2024/03/03 12:30:05;;;;;;;3.15;0.60;;;;;;;7.56;100.00;99059.25;4880625;29;20145;-83
2024/03/03 12:32:30;;;;;;;4.28;0.77;;;;;;;7.54;100.00;99051.53;4894356;29;20047;-82
2024/03/03 12:34:56;;;;;;;4.63;0.75;;;;;;;7.63;100.00;99060.25;4913996;29;20384;-82
2024/03/03 12:37:26;;;;;;;9.43;0.80;;;;;;;7.72;100.00;99062.91;4930475;29;20489;-82
2024/03/03 12:39:53;;;;;;;3.95;0.80;;;;;;;7.69;100.00;99061.44;4902066;29;20039;-82
2024/03/03 12:42:19;;;;;;;1.27;0.63;;;;;;;7.66;100.00;99067.81;4901337;29;20506;-83
2024/03/03 12:44:45;;;;;;;7.15;0.95;;;;;;;7.65;100.00;99075.88;4903615;29;20075;-83
2024/03/03 12:47:13;;;;;;;2.53;0.50;;;;;;;7.63;100.00;99072.59;4926842;29;20435;-84
2024/03/03 12:49:44;;;;;;;2.30;0.52;;;;;;;7.43;100.00;99064.94;4889197;29;20047;-83
2024/03/03 12:52:11;;;;;;;3.08;0.60;;;;;;;7.31;100.00;99070.47;4888295;29;20040;-84
2024/03/03 12:54:40;;;;;;;3.35;0.55;;;;;;;7.30;100.00;99073.25;4885709;29;20398;-83
2024/03/03 12:57:10;;;;;;;4.65;1.15;;;;;;;7.37;100.00;99078.72;4902222;29;20493;-83
2024/03/03 12:59:37;;;;;;;3.55;0.40;;;;;;;7.50;100.00;99081.72;4899500;29;20039;-83
2024/03/03 13:02:11;;;;;;;3.92;0.32;;;;;;;7.72;100.00;99074.25;4893993;29;20054;-83
2024/03/03 13:04:38;;;;;;;1.65;0.20;;;;;;;7.85;100.00;99080.88;4910812;29;20495;-83
2024/03/03 13:07:04;;;;;;;2.88;1.45;;;;;;;8.02;100.00;99076.47;4911093;29;20034;-83
2024/03/03 13:09:29;;;;;;;3.17;1.13;;;;;;;8.12;100.00;99079.75;4889189;29;20054;-83
2024/03/03 13:11:56;;;;;;;2.83;0.73;;;;;;;8.20;100.00;99076.34;4900712;29;20051;-83
2024/03/03 13:14:25;;;;;;;5.68;2.95;;;;;;;8.22;100.00;99074.34;4896829;29;20086;-82
2024/03/03 13:17:23;;;;;;;5.38;1.80;;;;;;;8.29;100.00;99066.63;4879672;29;20044;-82
2024/03/03 13:19:50;;;;;;;4.35;1.45;;;;;;;8.29;100.00;99077.16;4893814;29;20047;-82
2024/03/03 13:22:20;;;;;;;4.15;0.88;;;;;;;8.29;100.00;99075.34;4885666;29;20094;-82
2024/03/03 13:24:58;;;;;;;2.10;0.70;;;;;;;8.25;100.00;99083.75;4901110;29;20436;-83
2024/03/03 13:27:25;;;;;;;3.63;0.45;;;;;;;7.92;100.00;99079.22;4878318;29;20040;-84
2024/03/03 13:29:52;;;;;;;3.78;0.93;;;;;;;7.73;100.00;99068.00;4927627;29;20123;-84
2024/03/03 13:32:24;;;;;;;4.88;0.90;;;;;;;7.60;100.00;99062.41;4916209;29;20610;-82
2024/03/03 13:34:50;;;;;;;4.32;0.88;;;;;;;7.49;100.00;99059.06;4913330;29;20036;-83
2024/03/03 13:37:15;;;;;;;2.20;0.65;;;;;;;7.59;100.00;99068.63;4880061;29;20040;-83
2024/03/03 13:39:44;;;;;;;3.75;0.63;;;;;;;7.71;100.00;99066.53;4912258;29;20407;-83
2024/03/03 13:42:12;;;;;;;7.38;1.25;;;;;;;7.90;100.00;99070.69;4921610;29;20043;-83
2024/03/03 13:44:42;;;;;;;2.97;0.77;;;;;;;7.97;100.00;99069.06;4898091;29;20380;-83
2024/03/03 13:47:14;;;;;;;1.50;0.82;;;;;;;8.06;100.00;99073.34;4916260;29;20036;-83
2024/03/03 13:49:41;;;;;;;1.90;0.60;;;;;;;8.05;100.00;99076.13;4916868;29;20394;-83
2024/03/03 13:52:08;;;;;;;2.33;0.57;;;;;;;8.09;100.00;99077.44;4935785;29;20119;-82
2024/03/03 13:54:36;;;;;;;2.78;0.50;;;;;;;8.17;100.00;99074.84;4900476;29;20030;-82
2024/03/03 13:57:06;;;;;;;1.08;0.30;;;;;;;8.26;100.00;99066.97;4920966;29;20027;-82
2024/03/03 13:59:32;;;;;;;3.22;0.40;;;;;;;8.46;100.00;99075.34;4922877;29;20557;-82
2024/03/03 14:01:58;;;;;;;3.28;0.70;;;;;;;8.64;100.00;99072.59;4898984;29;20048;-82
2024/03/03 14:04:25;;;;;;;4.00;0.65;;;;;;;8.72;100.00;99079.66;4928908;29;20051;-82
2024/03/03 14:06:51;;;;;;;1.42;0.45;;;;;;;8.73;100.00;99065.50;4937520;29;20036;-82
2024/03/03 14:09:16;;;;;;;3.35;0.88;;;;;;;8.75;100.00;99076.69;4915447;29;20043;-82
2024/03/03 14:11:42;;;;;;;3.10;0.57;;;;;;;8.79;100.00;99074.56;4916188;29;20524;-83
2024/03/03 14:14:08;;;;;;;44.80;31.52;;;;;;;8.90;100.00;99081.28;4918545;29;20095;-82
2024/03/03 14:16:33;;;;;;;6.60;2.17;;;;;;;9.01;100.00;99072.22;4900732;29;20074;-83
2024/03/03 14:18:59;;;;;;;10.43;6.05;;;;;;;9.13;100.00;99070.84;4920510;29;20039;-82